createdAt,value
2018-11-07T00:00:49.212Z,6.37
2018-11-07T00:03:17.655Z,6.00
2018-11-07T00:05:47.365Z,5.87
2018-11-07T00:08:16.129Z,5.97
2018-11-07T00:10:44.393Z,5.03
2018-11-07T00:13:12.717Z,4.83
2018-11-07T00:15:41.081Z,4.70
2018-11-07T00:18:09.393Z,4.40
2018-11-07T00:20:37.674Z,4.23
2018-11-07T00:23:05.967Z,4.17
2018-11-07T00:25:34.268Z,3.70
2018-11-07T00:28:02.633Z,3.80
2018-11-07T00:30:30.982Z,3.85
2018-11-07T00:32:59.474Z,3.87
2018-11-07T00:35:27.832Z,3.15
2018-11-07T00:37:56.146Z,3.10
2018-11-07T00:40:24.514Z,2.87
2018-11-07T00:42:52.821Z,2.57
2018-11-07T00:45:21.135Z,3.37
2018-11-07T00:47:49.508Z,2.87
2018-11-07T00:50:18.912Z,3.10
2018-11-07T00:52:47.259Z,2.90
2018-11-07T00:55:16.326Z,2.37
2018-11-07T00:57:44.969Z,2.70
2018-11-07T01:00:15.569Z,2.70
2018-11-07T01:02:45.197Z,2.57
2018-11-07T01:05:13.973Z,2.70
2018-11-07T01:07:43.748Z,2.23
2018-11-07T01:10:12.517Z,2.73
2018-11-07T01:12:42.643Z,2.83
2018-11-07T01:15:11.745Z,3.37
2018-11-07T01:17:40.189Z,2.53
2018-11-07T01:20:09.899Z,3.10
2018-11-07T01:22:38.187Z,2.73
2018-11-07T01:25:07.333Z,3.00
2018-11-07T01:27:35.824Z,2.90
2018-11-07T01:30:04.860Z,2.63
2018-11-07T01:32:33.343Z,3.00
2018-11-07T01:35:01.695Z,3.17
2018-11-07T01:37:30.100Z,3.10
2018-11-07T01:39:58.455Z,3.27
2018-11-07T01:42:26.937Z,3.03
2018-11-07T01:44:55.302Z,3.70
2018-11-07T01:47:23.652Z,4.30
2018-11-07T01:49:52.097Z,3.50
2018-11-07T01:52:20.461Z,3.43
2018-11-07T01:54:48.797Z,3.63
2018-11-07T01:57:17.278Z,3.63
2018-11-07T01:59:45.637Z,3.53
2018-11-07T02:02:13.958Z,3.67
2018-11-07T02:04:42.829Z,3.90
2018-11-07T02:07:11.242Z,3.80
2018-11-07T02:09:39.680Z,3.60
2018-11-07T02:12:08.009Z,4.07
2018-11-07T02:14:36.349Z,4.10
2018-11-07T02:17:04.886Z,3.90
2018-11-07T02:19:50.174Z,4.10
2018-11-07T02:22:18.610Z,4.00
2018-11-07T02:24:47.025Z,4.23
2018-11-07T02:27:15.486Z,4.00
2018-11-07T02:29:43.801Z,4.20
2018-11-07T02:32:12.109Z,4.30
2018-11-07T02:34:40.503Z,4.33
2018-11-07T02:37:09.122Z,4.73
2018-11-07T02:39:37.777Z,4.30
2018-11-07T02:42:06.279Z,4.40
2018-11-07T02:44:34.669Z,3.80
2018-11-07T02:47:03.220Z,4.20
2018-11-07T02:49:31.701Z,3.57
2018-11-07T02:52:00.350Z,3.17
2018-11-07T02:54:28.908Z,3.50
2018-11-07T02:56:57.245Z,3.25
2018-11-07T02:59:25.602Z,3.30
2018-11-07T03:01:53.911Z,3.30
2018-11-07T03:04:23.240Z,2.57
2018-11-07T03:06:51.617Z,3.13
2018-11-07T03:09:20.064Z,2.60
2018-11-07T03:11:48.459Z,2.83
2018-11-07T03:14:16.874Z,2.40
2018-11-07T03:16:45.281Z,2.33
2018-11-07T03:19:13.763Z,2.37
2018-11-07T03:21:42.116Z,2.30
2018-11-07T03:24:10.435Z,2.20
2018-11-07T03:26:39.297Z,2.63
2018-11-07T03:29:07.693Z,2.03
2018-11-07T03:31:36.008Z,2.20
2018-11-07T03:34:04.328Z,2.07
2018-11-07T03:36:32.804Z,2.00
2018-11-07T03:39:01.167Z,2.30
2018-11-07T03:41:29.583Z,2.00
2018-11-07T03:43:58.954Z,2.43
2018-11-07T03:46:27.256Z,2.20
2018-11-07T03:48:55.568Z,2.20
2018-11-07T03:51:23.930Z,2.53
2018-11-07T03:53:52.293Z,2.13
2018-11-07T03:56:20.684Z,1.80
2018-11-07T03:58:49.140Z,1.87
2018-11-07T04:01:17.613Z,2.10
2018-11-07T04:03:45.978Z,1.70
2018-11-07T04:06:14.477Z,2.20
2018-11-07T04:08:42.861Z,1.73
2018-11-07T04:11:11.234Z,1.93
2018-11-07T04:13:39.892Z,1.73
2018-11-07T04:16:08.257Z,1.70
2018-11-07T04:18:36.689Z,2.03
2018-11-07T04:21:05.261Z,1.90
2018-11-07T04:23:33.645Z,1.47
2018-11-07T04:26:02.138Z,1.67
2018-11-07T04:28:30.749Z,1.73
2018-11-07T04:30:59.668Z,1.90
2018-11-07T04:33:28.028Z,1.60
2018-11-07T04:35:56.443Z,1.57
2018-11-07T04:38:24.855Z,1.50
2018-11-07T04:40:53.306Z,1.60
2018-11-07T04:43:21.650Z,1.83
2018-11-07T04:45:50.045Z,2.00
2018-11-07T04:48:18.366Z,2.07
2018-11-07T04:50:46.684Z,2.30
2018-11-07T04:53:15.240Z,2.57
2018-11-07T04:55:43.688Z,2.10
2018-11-07T04:58:12.078Z,1.80
2018-11-07T05:00:40.413Z,1.70
2018-11-07T05:03:08.829Z,1.70
2018-11-07T05:05:37.217Z,1.87
2018-11-07T05:08:05.648Z,1.47
2018-11-07T05:10:34.016Z,1.43
2018-11-07T05:13:02.552Z,1.70
2018-11-07T05:15:31.222Z,1.73
2018-11-07T05:17:59.855Z,1.77
2018-11-07T05:20:28.541Z,1.90
2018-11-07T05:22:57.220Z,1.77
2018-11-07T05:25:25.717Z,1.60
2018-11-07T05:27:54.157Z,1.87
2018-11-07T05:30:22.680Z,1.57
2018-11-07T05:32:51.153Z,1.63
2018-11-07T05:35:19.617Z,1.80
2018-11-07T05:37:48.100Z,1.90
2018-11-07T05:40:16.830Z,2.10
2018-11-07T05:42:46.985Z,2.00
2018-11-07T05:45:15.362Z,1.63
2018-11-07T05:47:43.905Z,1.90
2018-11-07T05:50:12.249Z,1.87
2018-11-07T05:52:40.863Z,1.73
2018-11-07T05:55:10.127Z,1.97
2018-11-07T05:57:39.284Z,1.83
2018-11-07T06:00:09.653Z,1.87
2018-11-07T06:02:39.521Z,1.70
2018-11-07T06:05:09.414Z,1.90
2018-11-07T06:07:38.577Z,1.67
2018-11-07T06:10:09.322Z,2.00
2018-11-07T06:12:38.362Z,2.00
2018-11-07T06:15:08.681Z,1.90
2018-11-07T06:17:37.432Z,2.07
2018-11-07T06:20:06.899Z,1.93
2018-11-07T06:22:35.561Z,1.90
2018-11-07T06:25:04.275Z,2.00
2018-11-07T06:27:34.167Z,2.37
2018-11-07T06:30:03.986Z,2.10
2018-11-07T06:32:32.826Z,2.00
2018-11-07T06:35:01.213Z,2.07
2018-11-07T06:37:29.684Z,2.00
2018-11-07T06:40:10.098Z,2.20
2018-11-07T06:42:38.515Z,2.47
2018-11-07T06:45:07.833Z,2.10
2018-11-07T06:47:42.908Z,2.43
2018-11-07T06:50:14.406Z,2.13
2018-11-07T06:52:58.168Z,2.20
2018-11-07T06:55:29.714Z,2.00
2018-11-07T06:58:01.098Z,2.23
2018-11-07T07:00:34.404Z,1.90
2018-11-07T07:03:05.960Z,2.20
2018-11-07T07:05:34.638Z,2.60
2018-11-07T07:08:04.909Z,2.10
2018-11-07T07:10:38.644Z,2.10
2018-11-07T07:13:07.686Z,2.33
2018-11-07T07:15:36.112Z,1.97
2018-11-07T07:18:04.621Z,2.10
2018-11-07T07:20:33.033Z,1.90
2018-11-07T07:23:01.650Z,2.30
2018-11-07T07:25:30.962Z,1.80
2018-11-07T07:27:59.685Z,2.50
2018-11-07T07:30:28.140Z,2.10
2018-11-07T07:32:56.599Z,2.10
2018-11-07T07:35:25.189Z,2.03
2018-11-07T07:37:53.653Z,2.03
2018-11-07T07:40:21.988Z,2.10
2018-11-07T07:42:50.367Z,2.30
2018-11-07T07:45:20.037Z,1.90
2018-11-07T07:47:48.514Z,2.07
2018-11-07T07:50:18.200Z,2.07
2018-11-07T07:52:46.876Z,1.80
2018-11-07T07:55:15.459Z,2.17
2018-11-07T07:57:44.457Z,1.50
2018-11-07T08:00:18.363Z,1.87
2018-11-07T08:02:49.121Z,1.80
2018-11-07T08:05:17.572Z,1.90
2018-11-07T08:07:46.906Z,1.87
2018-11-07T08:10:16.542Z,1.83
2018-11-07T08:12:45.378Z,2.00
2018-11-07T08:15:14.390Z,1.87
2018-11-07T08:17:43.651Z,1.60
2018-11-07T08:20:14.499Z,2.00
2018-11-07T08:22:44.402Z,1.70
2018-11-07T08:25:13.096Z,2.00
2018-11-07T08:27:41.411Z,1.60
2018-11-07T08:30:11.866Z,2.07
2018-11-07T08:32:41.366Z,2.00
2018-11-07T08:35:11.130Z,1.83
2018-11-07T08:37:40.127Z,1.90
2018-11-07T08:40:14.395Z,1.73
2018-11-07T08:42:43.687Z,1.77
2018-11-07T08:45:13.738Z,2.00
2018-11-07T08:47:43.392Z,1.80
2018-11-07T08:50:13.906Z,1.90
2018-11-07T08:52:43.510Z,1.80
2018-11-07T08:55:13.491Z,1.50
2018-11-07T08:57:41.917Z,1.60
2018-11-07T09:00:13.194Z,2.70
2018-11-07T09:02:42.618Z,1.90
2018-11-07T09:05:11.647Z,1.80
2018-11-07T09:07:41.033Z,1.53
2018-11-07T09:10:11.141Z,1.47
2018-11-07T09:12:39.618Z,1.50
2018-11-07T09:15:10.790Z,1.77
2018-11-07T09:17:39.325Z,1.60
2018-11-07T09:20:09.471Z,1.42
2018-11-07T09:22:37.972Z,1.67
2018-11-07T09:25:07.278Z,1.90
2018-11-07T09:27:36.260Z,1.73
2018-11-07T09:30:05.465Z,1.80
2018-11-07T09:32:33.840Z,1.90
2018-11-07T09:35:02.201Z,1.40
2018-11-07T09:37:30.669Z,1.75
2018-11-07T09:39:59.804Z,1.43
2018-11-07T09:42:28.178Z,1.77
2018-11-07T09:44:56.878Z,1.80
2018-11-07T09:47:25.328Z,1.57
2018-11-07T09:49:53.921Z,1.50
2018-11-07T09:52:22.365Z,2.30
2018-11-07T09:54:50.785Z,1.42
2018-11-07T09:57:19.489Z,1.60
2018-11-07T09:59:47.861Z,1.60
2018-11-07T10:02:16.261Z,2.10
2018-11-07T10:04:44.641Z,1.93
2018-11-07T10:07:13.202Z,1.53
2018-11-07T10:09:41.583Z,1.57
2018-11-07T10:12:10.612Z,1.80
2018-11-07T10:14:39.426Z,1.57
2018-11-07T10:17:07.983Z,1.90
2018-11-07T10:19:36.552Z,1.50
2018-11-07T10:22:07.143Z,1.67
2018-11-07T10:24:35.605Z,1.77
2018-11-07T10:27:05.156Z,1.93
2018-11-07T10:29:33.852Z,1.95
2018-11-07T10:32:02.137Z,1.63
2018-11-07T10:34:30.666Z,1.63
2018-11-07T10:36:59.965Z,1.90
2018-11-07T10:39:29.209Z,1.60
2018-11-07T10:41:58.280Z,1.60
2018-11-07T10:44:26.701Z,1.60
2018-11-07T10:46:55.065Z,2.17
2018-11-07T10:49:25.221Z,2.03
2018-11-07T10:51:53.700Z,1.70
2018-11-07T10:54:22.458Z,2.33
2018-11-07T10:56:50.889Z,1.87
2018-11-07T11:00:22.818Z,1.90
2018-11-07T11:02:57.162Z,1.77
2018-11-07T11:05:25.636Z,2.10
2018-11-07T11:07:53.939Z,2.53
2018-11-07T11:10:22.978Z,2.27
2018-11-07T11:12:51.264Z,1.83
2018-11-07T11:15:19.581Z,1.67
2018-11-07T11:17:47.878Z,2.20
2018-11-07T11:20:16.226Z,1.80
2018-11-07T11:22:44.638Z,2.17
2018-11-07T11:25:13.102Z,1.70
2018-11-07T11:27:42.106Z,2.10
2018-11-07T11:30:10.843Z,1.77
2018-11-07T11:32:39.911Z,2.20
2018-11-07T11:35:09.439Z,1.70
2018-11-07T11:37:37.634Z,2.20
2018-11-07T11:40:07.393Z,2.67
2018-11-07T11:42:35.697Z,2.00
2018-11-07T11:45:04.662Z,2.13
2018-11-07T11:47:32.943Z,1.98
2018-11-07T11:50:01.286Z,2.12
2018-11-07T11:52:29.600Z,1.93
2018-11-07T11:54:58.139Z,1.97
2018-11-07T11:57:26.550Z,2.17
2018-11-07T11:59:55.057Z,2.13
2018-11-07T12:02:27.786Z,2.17
2018-11-07T12:04:56.099Z,2.60
2018-11-07T12:07:24.517Z,1.92
2018-11-07T12:09:53.241Z,1.90
2018-11-07T12:12:21.553Z,2.15
2018-11-07T12:14:49.882Z,1.57
2018-11-07T12:17:18.199Z,1.43
2018-11-07T12:19:46.525Z,1.50
2018-11-07T12:22:14.884Z,1.85
2018-11-07T12:24:43.298Z,1.35
2018-11-07T12:27:11.818Z,1.50
2018-11-07T12:29:40.308Z,1.70
2018-11-07T12:32:08.808Z,2.37
2018-11-07T12:34:37.201Z,2.40
2018-11-07T12:37:05.672Z,1.90
2018-11-07T12:39:34.187Z,1.65
2018-11-07T12:42:02.733Z,2.20
2018-11-07T12:44:31.085Z,1.87
2018-11-07T12:46:59.443Z,1.93
2018-11-07T12:49:27.880Z,1.90
2018-11-07T12:51:56.308Z,2.00
2018-11-07T12:54:24.637Z,1.73
2018-11-07T12:56:52.952Z,2.00
2018-11-07T12:59:21.227Z,1.80
2018-11-07T13:01:49.612Z,2.00
2018-11-07T13:04:18.161Z,2.37
2018-11-07T13:06:46.481Z,2.50
2018-11-07T13:09:14.948Z,2.37
2018-11-07T13:11:43.421Z,2.15
2018-11-07T13:14:11.809Z,2.20
2018-11-07T13:16:40.603Z,2.33
2018-11-07T13:19:09.262Z,2.05
2018-11-07T13:21:37.633Z,2.47
2018-11-07T13:24:06.062Z,2.25
2018-11-07T13:26:34.373Z,2.62
2018-11-07T13:29:02.825Z,2.30
2018-11-07T13:31:31.204Z,2.20
2018-11-07T13:33:59.509Z,2.22
2018-11-07T13:36:28.136Z,2.47
2018-11-07T13:38:56.959Z,2.20
2018-11-07T13:41:24.880Z,2.53
2018-11-07T13:43:53.297Z,2.77
2018-11-07T13:46:21.660Z,2.47
2018-11-07T13:48:50.034Z,2.40
2018-11-07T13:51:18.684Z,2.67
2018-11-07T13:53:47.014Z,2.65
2018-11-07T13:56:16.053Z,2.67
2018-11-07T13:58:44.514Z,2.60
2018-11-07T14:01:13.105Z,2.80
2018-11-07T14:03:41.604Z,2.80
2018-11-07T14:06:10.537Z,2.30
2018-11-07T14:08:39.021Z,2.80
2018-11-07T14:11:07.413Z,2.45
2018-11-07T14:13:35.738Z,3.20
2018-11-07T14:16:04.408Z,2.70
2018-11-07T14:18:32.657Z,2.73
2018-11-07T14:21:01.262Z,2.52
2018-11-07T14:23:29.734Z,2.43
2018-11-07T14:25:58.077Z,2.30
2018-11-07T14:28:26.566Z,2.87
2018-11-07T14:30:54.945Z,2.57
2018-11-07T14:33:23.336Z,2.40
2018-11-07T14:35:51.640Z,3.00
2018-11-07T14:38:20.162Z,1.80
2018-11-07T14:40:48.558Z,2.40
2018-11-07T14:43:17.074Z,2.57
2018-11-07T14:45:45.387Z,2.57
2018-11-07T14:48:13.825Z,2.13
2018-11-07T14:50:42.247Z,2.50
2018-11-07T14:53:10.655Z,2.30
2018-11-07T14:55:39.039Z,2.57
2018-11-07T14:58:07.401Z,2.80
2018-11-07T15:00:35.863Z,2.90
2018-11-07T15:03:04.323Z,3.00
2018-11-07T15:05:33.271Z,2.60
2018-11-07T15:08:01.574Z,2.63
2018-11-07T15:10:29.889Z,2.40
2018-11-07T15:12:58.435Z,2.13
2018-11-07T15:15:27.643Z,2.53
2018-11-07T15:17:56.105Z,2.30
2018-11-07T15:20:24.408Z,2.80
2018-11-07T15:22:52.907Z,1.80
2018-11-07T15:25:21.322Z,2.37
2018-11-07T15:27:49.620Z,1.97
2018-11-07T15:30:18.622Z,1.97
2018-11-07T15:32:47.262Z,2.30
2018-11-07T15:35:16.906Z,1.80
2018-11-07T15:37:45.517Z,2.20
2018-11-07T15:40:15.848Z,2.27
2018-11-07T15:42:44.830Z,2.70
2018-11-07T15:45:14.725Z,3.00
2018-11-07T15:47:43.324Z,2.37
2018-11-07T15:50:17.205Z,2.93
2018-11-07T15:52:47.168Z,3.87
2018-11-07T15:55:15.708Z,3.52
2018-11-07T15:57:44.229Z,6.23
2018-11-07T16:00:15.075Z,7.17
2018-11-07T16:02:43.643Z,5.20
2018-11-07T16:05:13.352Z,5.90
2018-11-07T16:07:41.764Z,4.10
2018-11-07T16:10:11.713Z,3.70
2018-11-07T16:12:41.139Z,3.20
2018-11-07T16:15:11.349Z,3.53
2018-11-07T16:17:40.228Z,3.57
2018-11-07T16:20:11.592Z,3.87
2018-11-07T16:22:40.780Z,3.93
2018-11-07T16:25:09.410Z,3.67
2018-11-07T16:27:38.212Z,3.80
2018-11-07T16:30:08.532Z,4.40
2018-11-07T16:32:36.822Z,4.13
2018-11-07T16:35:05.279Z,4.03
2018-11-07T16:37:33.816Z,4.63
2018-11-07T16:40:02.234Z,4.30
2018-11-07T16:42:30.573Z,4.10
2018-11-07T16:44:58.856Z,4.03
2018-11-07T16:47:27.606Z,4.20
2018-11-07T16:49:55.873Z,4.80
2018-11-07T16:52:24.307Z,4.20
2018-11-07T16:54:52.660Z,4.60
2018-11-07T16:57:21.001Z,3.85
2018-11-07T16:59:49.276Z,3.97
2018-11-07T17:02:17.558Z,3.75
2018-11-07T17:04:46.207Z,3.60
2018-11-07T17:07:14.623Z,3.70
2018-11-07T17:09:42.975Z,3.93
2018-11-07T17:12:11.293Z,3.70
2018-11-07T17:14:39.836Z,4.37
2018-11-07T17:17:08.249Z,5.50
2018-11-07T17:19:36.644Z,6.80
2018-11-07T17:22:05.063Z,5.93
2018-11-07T17:24:33.579Z,6.73
2018-11-07T17:27:01.808Z,4.43
2018-11-07T17:29:30.165Z,3.77
2018-11-07T17:31:59.727Z,4.00
2018-11-07T17:34:28.079Z,4.07
2018-11-07T17:36:56.361Z,4.10
2018-11-07T17:39:24.691Z,4.37
2018-11-07T17:41:52.990Z,4.62
2018-11-07T17:44:21.320Z,3.90
2018-11-07T17:46:49.645Z,4.30
2018-11-07T17:49:17.981Z,3.40
2018-11-07T17:51:46.377Z,4.27
2018-11-07T17:54:14.842Z,4.17
2018-11-07T17:56:43.516Z,3.70
2018-11-07T17:59:12.070Z,3.87
2018-11-07T18:01:40.608Z,4.37
2018-11-07T18:04:09.503Z,3.83
2018-11-07T18:06:38.121Z,4.20
2018-11-07T18:09:08.089Z,3.67
2018-11-07T18:11:37.059Z,4.20
2018-11-07T18:14:06.524Z,4.17
2018-11-07T18:16:34.837Z,4.00
2018-11-07T18:19:03.282Z,3.40
2018-11-07T18:21:38.637Z,3.50
2018-11-07T18:24:07.568Z,3.50
2018-11-07T18:26:35.888Z,3.17
2018-11-07T18:29:05.653Z,4.03
2018-11-07T18:31:34.190Z,3.50
2018-11-07T18:34:02.633Z,3.87
2018-11-07T18:36:31.293Z,4.73
2018-11-07T18:38:59.699Z,4.00
2018-11-07T18:41:28.125Z,5.80
2018-11-07T18:43:56.505Z,6.43
2018-11-07T18:46:24.868Z,5.20
2018-11-07T18:48:53.275Z,4.62
2018-11-07T18:51:41.421Z,3.83
2018-11-07T18:54:24.440Z,3.52
2018-11-07T18:56:52.798Z,4.60
2018-11-07T18:59:21.229Z,4.27
2018-11-07T19:01:50.337Z,4.30
2018-11-07T19:04:18.913Z,3.87
2018-11-07T19:06:47.364Z,4.33
2018-11-07T19:09:15.651Z,4.60
2018-11-07T19:11:44.499Z,3.70
2018-11-07T19:14:12.918Z,3.50
2018-11-07T19:16:41.362Z,3.20
2018-11-07T19:19:09.706Z,3.50
2018-11-07T19:21:38.261Z,3.67
2018-11-07T19:24:06.808Z,3.40
2018-11-07T19:26:36.573Z,3.57
2018-11-07T19:29:05.277Z,3.53
2018-11-07T19:31:33.680Z,3.83
2018-11-07T19:34:02.054Z,3.50
2018-11-07T19:36:30.666Z,3.37
2018-11-07T19:38:59.248Z,3.53
2018-11-07T19:41:27.755Z,3.53
2018-11-07T19:43:56.288Z,4.23
2018-11-07T19:46:24.731Z,3.53
2018-11-07T19:48:53.377Z,3.73
2018-11-07T19:51:21.739Z,3.60
2018-11-07T19:53:51.020Z,3.63
2018-11-07T19:56:19.425Z,3.70
2018-11-07T19:58:48.070Z,4.00
2018-11-07T20:01:16.593Z,3.93
2018-11-07T20:03:45.014Z,4.37
2018-11-07T20:06:13.634Z,4.27
2018-11-07T20:08:42.177Z,3.40
2018-11-07T20:11:10.604Z,3.87
2018-11-07T20:13:39.299Z,3.60
2018-11-07T20:16:08.357Z,3.63
2018-11-07T20:18:37.303Z,3.80
2018-11-07T20:21:05.792Z,4.00
2018-11-07T20:23:34.222Z,3.73
2018-11-07T20:26:02.606Z,4.10
2018-11-07T20:28:31.116Z,3.80
2018-11-07T20:30:59.480Z,3.60
2018-11-07T20:33:27.877Z,3.40
2018-11-07T20:35:56.287Z,3.50
2018-11-07T20:38:24.559Z,3.70
2018-11-07T20:40:52.997Z,3.53
2018-11-07T20:43:21.339Z,3.80
2018-11-07T20:45:49.828Z,4.00
2018-11-07T20:48:18.315Z,3.50
2018-11-07T20:50:46.675Z,3.20
2018-11-07T20:53:15.659Z,3.83
2018-11-07T20:55:44.097Z,3.73
2018-11-07T20:58:12.546Z,3.87
2018-11-07T21:00:41.505Z,4.10
2018-11-07T21:03:09.993Z,4.13
2018-11-07T21:05:38.507Z,4.23
2018-11-07T21:08:07.516Z,3.70
2018-11-07T21:10:35.913Z,3.47
2018-11-07T21:13:04.410Z,3.87
2018-11-07T21:15:33.130Z,4.07
2018-11-07T21:18:01.677Z,3.50
2018-11-07T21:20:30.010Z,4.30
2018-11-07T21:22:58.404Z,3.70
2018-11-07T21:25:26.713Z,3.47
2018-11-07T21:27:55.184Z,3.30
2018-11-07T21:30:23.552Z,3.20
2018-11-07T21:32:51.868Z,3.30
2018-11-07T21:35:20.366Z,3.40
2018-11-07T21:37:48.741Z,3.20
2018-11-07T21:40:17.823Z,3.30
2018-11-07T21:42:47.084Z,3.67
2018-11-07T21:45:16.043Z,3.40
2018-11-07T21:47:45.080Z,3.03
2018-11-07T21:50:15.112Z,3.10
2018-11-07T21:52:43.776Z,3.30
2018-11-07T21:55:12.395Z,3.17
2018-11-07T21:57:40.864Z,3.30
2018-11-07T22:00:18.828Z,3.17
2018-11-07T22:02:47.432Z,3.13
2018-11-07T22:05:16.608Z,3.80
2018-11-07T22:07:45.427Z,3.37
2018-11-07T22:10:15.240Z,3.20
2018-11-07T22:12:43.628Z,3.07
2018-11-07T22:15:12.283Z,3.40
2018-11-07T22:17:41.343Z,3.80
2018-11-07T22:20:15.646Z,3.47
2018-11-07T22:22:44.392Z,3.30
2018-11-07T22:25:12.930Z,3.40
2018-11-07T22:27:41.259Z,3.47
2018-11-07T22:30:11.734Z,2.90
2018-11-07T22:32:40.350Z,3.33
2018-11-07T22:35:10.558Z,3.10
2018-11-07T22:37:39.011Z,3.30
2018-11-07T22:40:09.344Z,2.90
2018-11-07T22:42:37.746Z,3.50
2018-11-07T22:45:06.536Z,3.33
2018-11-07T22:47:34.990Z,3.33
2018-11-07T22:50:03.567Z,2.53
2018-11-07T22:52:31.857Z,3.23
2018-11-07T22:55:00.576Z,3.27
2018-11-07T22:57:28.877Z,3.30
2018-11-07T22:59:57.356Z,3.10
2018-11-07T23:02:25.728Z,3.67
2018-11-07T23:04:54.248Z,3.60
2018-11-07T23:07:22.541Z,3.17
2018-11-07T23:09:50.872Z,3.20
2018-11-07T23:12:19.197Z,2.80
2018-11-07T23:14:47.505Z,3.17
2018-11-07T23:17:16.652Z,3.33
2018-11-07T23:19:45.073Z,3.77
2018-11-07T23:22:13.377Z,3.17
2018-11-07T23:24:41.976Z,3.03
2018-11-07T23:27:10.637Z,2.77
2018-11-07T23:29:39.022Z,3.07
2018-11-07T23:32:07.753Z,3.20
2018-11-07T23:34:36.112Z,3.63
2018-11-07T23:37:04.526Z,2.83
2018-11-07T23:39:32.836Z,3.10
2018-11-07T23:42:01.144Z,3.00
2018-11-07T23:44:29.846Z,3.07
2018-11-07T23:46:59.925Z,3.00
2018-11-07T23:49:28.230Z,3.43
2018-11-07T23:51:56.581Z,3.27
2018-11-07T23:54:25.049Z,3.03
2018-11-07T23:56:53.438Z,3.73
2018-11-07T23:59:22.253Z,3.23
